sim
Sign-in with your pilot id or email,
or register
Callsign
Passwort

Schedule Details

Flight Number: EWG652 (1)
Departure: Cologne Bonn Airport (EDDK) at 10:05
Arrival: Thessaloniki International Airport (LGTS) at 12:40
Route: Eurowings Passenger Schedule. Enter filed route here before submitting Pirep.

Weather Information
Getting current METAR information for EDDK 211450Z 30011KT 270V330 9999 -SHRA FEW028 SCT036CB 12/07 Q1027 NOSIG
Getting current METAR information for LGTS 211450Z 34007KT CAVOK 16/00 Q1022 NOSIG

Schedule Frequency

Route Map